Observations for Trim Market St
| Time | AQI | Temp °C | Hum % | Pres Pa | CO μg/m³ | H₂S μg/m³ | NO μg/m³ | NO₂ μg/m³ | O₃ μg/m³ | SO₂ μg/m³ | PM1 μg/m³ | PM2.5 μg/m³ | PM10 μg/m³ |
|---|---|---|---|---|---|---|---|---|---|---|---|---|---|
| Tuesday 25 August 2026 | |||||||||||||
| 10:07 | 2 | 22.2 | 55 | 57,415 | 0.01 | 0 | 1.29 | 12.11 | 66.03 | 0 | 0.71 | 3.75 | 4.67 |
| 10:05 | 2 | 22.1 | 55 | 57,451 | 0.03 | 0 | 1.72 | 13.04 | 61.08 | 0 | 0.71 | 3.75 | 4.67 |
| 10:04 | 2 | 22 | 55 | 57,444 | 0.03 | 0 | 1.57 | 13.19 | 63.13 | 0 | 1.43 | 4.26 | 5.38 |
| 10:03 | 2 | 22 | 55 | 57,401 | 0.06 | 0 | 1.59 | 13.02 | 59.52 | 0 | 0 | 2.74 | 4.67 |
| 10:02 | 2 | 22 | 55 | 57,374 | 0.33 | 0 | 1.52 | 19.37 | 54.62 | 0 | 0.71 | 2.74 | 3.95 |
| 10:01 | 2 | 22 | 55 | 57,348 | 0 | 0 | 1.47 | 11.3 | 64.09 | 0 | 1.43 | 3.76 | 4.67 |
| 10:00 | 2 | 22 | 55 | 57,322 | 0.11 | 0 | 1.22 | 12.74 | 62.59 | 0 | 0.71 | 3.25 | 3.95 |
| 09:59 | 2 | 21.9 | 55 | 57,279 | 0 | 0 | 1.19 | 11.51 | 64.22 | 0 | 1.43 | 3.76 | 5.38 |
| 09:57 | 2 | 21.9 | 55 | 57,202 | 0 | 0 | 1.2 | 10.67 | 64.37 | 0 | 0 | 2.74 | 3.24 |
| 09:54 | 2 | 21.9 | 55 | 57,156 | 0 | 0 | 1.29 | 10.86 | 64.96 | 0 | 1.43 | 3.76 | 4.66 |
| 09:50 | 2 | 21.9 | 55 | 57,320 | 0 | 0 | 1.21 | 9.34 | 64.71 | 0 | 0.71 | 2.73 | 3.24 |
| 09:48 | 2 | 21.9 | 55 | 57,405 | 0.05 | 0 | 1.22 | 10.55 | 64.14 | 0 | 1.43 | 3.24 | 3.96 |
| 09:44 | 2 | 21.9 | 56 | 57,463 | 0.02 | 0 | 1.23 | 10.45 | 63.94 | 0 | 0.71 | 3.23 | 3.96 |
| 09:43 | 2 | 22 | 56 | 57,459 | 0 | 0 | 1.26 | 10.22 | 63.51 | 0 | 0 | 2.72 | 3.97 |
| 09:37 | 2 | 22 | 56 | 57,712 | 0 | 0 | 1.29 | 11.42 | 62.73 | 0 | 0.71 | 3.21 | 4.69 |
| 09:36 | 2 | 22 | 56 | 57,709 | 0 | 0 | 1.29 | 10.86 | 62.38 | 0 | 0.71 | 3.21 | 3.98 |
| 09:35 | 2 | 22 | 56 | 57,712 | 0 | 0 | 1.31 | 9.34 | 62.71 | 0 | 0.71 | 3.2 | 4.69 |
| 09:34 | 2 | 21.9 | 56 | 57,725 | 0 | 0 | 1.28 | 9.94 | 63.16 | 0 | 1.43 | 3.2 | 3.98 |
| 09:33 | 2 | 21.9 | 56 | 57,731 | 0 | 0 | 1.28 | 11.28 | 63.38 | 0 | 0.71 | 4.21 | 5.4 |
| 09:32 | 2 | 21.9 | 56 | 57,730 | 0 | 0 | 1.28 | 11.78 | 64.68 | 0 | 0.71 | 2.7 | 3.27 |